• Join FlightAware (Why Join?)
  • Login
  • US Flag 
08:58PM EDT


 

Airport Tracker/Info


-or-


 

Live Flight TrackerFlight Track Log ✈ N157UM ✈ 23-Sep-2013 ✈ KPHN - KDTW

Flight Track Log - Related Links

Times and Time Zones

All times are in EDT time to prevent confusion due to time zone crossing. See the N157UM flight status page for this flight to view local times or setup timezone preferences in your user account.

Time Position Orientation Groundspeed Altitude Reporting Facility
EDT Latitude Longitude Course Direction KTS MPH feet Rate Location/Type
07:50PM 42.5344 -82.7736 219° Southwest 154 177 2,000  Level Cleveland Center
07:51PM 42.5058 -82.8094 223° Southwest 155 178 2,000  Level Cleveland Center
07:51PM 42.5022 -82.8122 210° Southwest 154 177 2,000  Level Cleveland Center
07:52PM 42.4711 -82.8528 224° Southwest 156 180 2,000  Level Cleveland Center
07:52PM 42.4706 -82.8517 124° Southeast 154 177 2,000 -300 Level Cleveland Center
07:53PM 42.4375 -82.8914 222° Southwest 156 180 1,700 -360 Descending Cleveland Center
07:54PM 42.7808 -82.6755 220° Southwest  Level FlightAware Approximate
07:54PM 42.4181 -82.9222 230° Southwest 71 82 1,300  Level Cleveland Center
07:55PM 42.7591 -82.6998 219° Southwest  Level FlightAware Approximate
07:55PM 42.4206 -82.9167 59° Northeast 33 38 900  Level Cleveland Center
07:55PM 42.4261 -82.9411 287° West 100 115 1,200  Climbing Cleveland Center
07:56PM 42.4186 -82.9136 110° East 33 38 900 -120 Descending Cleveland Center
07:58PM 42.4186 -82.9136 324° Northwest 33 38 900  Level Cleveland Center
08:00PM 42.4186 -82.9136 324° Northwest 33 38 900  Level Cleveland Center
08:02PM 42.4186 -82.9136 324° Northwest 33 38 900  Level Cleveland Center
08:04PM 42.4186 -82.9136 324° Northwest 33 38 900  Level Cleveland Center
08:06PM 42.4186 -82.9136 324° Northwest 33 38 900  Level Cleveland Center
08:08PM 42.4186 -82.9136 324° Northwest 33 38 900  Level Cleveland Center
08:10PM 42.4186 -82.9136 324° Northwest 33 38 900  Level Cleveland Center
08:12PM 42.4186 -82.9136 324° Northwest 33 38 900  Level Cleveland Center
08:14PM 42.4186 -82.9136 324° Northwest 33 38 900  Level Cleveland Center
08:48PM 42.4131 -82.9300 242° Southwest 90 104 1,300  Climbing Cleveland Center
08:49PM 42.4081 -82.9689 260° West 109 125 2,000 300 Climbing Cleveland Center
08:50PM 42.3975 -83.0294 257° West 151 174 2,000  Level Cleveland Center
08:51PM 42.3886 -83.0906 259° West 152 175 2,000  Level Cleveland Center
08:52PM 42.3806 -83.1431 258° West 152 175 2,000  Level Cleveland Center
08:53PM 42.3719 -83.1983 258° West 150 173 2,000  Level Cleveland Center
08:54PM 42.3719 -83.2550 270° West 151 174 2,000  Level Cleveland Center
08:55PM 42.3614 -83.3100 255° West 149 171 2,000  Level Cleveland Center
08:56PM 42.3508 -83.3650 255° West 154 177 2,000  Level Cleveland Center
08:57PM 42.3428 -83.4147 258° West 153 176 2,000  Level Cleveland Center
08:58PM 42.3322 -83.4697 255° West 154 177 2,000  Level Cleveland Center
08:59PM 42.3214 -83.5275 256° West 156 180 2,000  Level Cleveland Center
09:00PM 42.3103 -83.5881 256° West 156 180 2,000  Level Cleveland Center
09:01PM 42.3100 -83.6444 270° West 155 178 2,000  Level Cleveland Center
09:02PM 42.3056 -83.6975 264° West 105 121 2,000 -240 Level Cleveland Center
09:03PM 42.2894 -83.7147 218° Southwest 62 71 1,500 -540 Descending Cleveland Center
09:04PM 42.2842 -83.7281 242° Southwest 39 45 1,000 -540 Descending Cleveland Center